createdAt,value
2022-10-15T00:01:23.406Z,0.3
2022-10-15T00:03:03.176Z,0.25
2022-10-15T00:04:42.926Z,0.27
2022-10-15T00:06:22.730Z,0.28
2022-10-15T00:08:02.452Z,0.27
2022-10-15T00:09:42.223Z,0.27
2022-10-15T00:11:21.994Z,0.28
2022-10-15T00:13:01.762Z,0.26
2022-10-15T00:14:41.565Z,0.27
2022-10-15T00:16:21.297Z,0.26
2022-10-15T00:18:01.088Z,0.28
2022-10-15T00:19:40.826Z,0.24
2022-10-15T00:21:20.588Z,0.28
2022-10-15T00:23:00.369Z,0.27
2022-10-15T00:24:40.136Z,0.24
2022-10-15T00:26:19.895Z,0.26
2022-10-15T00:27:59.661Z,0.26
2022-10-15T00:29:39.468Z,0.26
2022-10-15T00:31:19.207Z,0.23
2022-10-15T00:32:58.974Z,0.25
2022-10-15T00:34:38.773Z,0.24
2022-10-15T00:36:18.516Z,0.24
2022-10-15T00:37:58.280Z,0.24
2022-10-15T00:39:38.052Z,0.28
2022-10-15T00:41:17.813Z,0.23
2022-10-15T00:42:57.569Z,0.26
2022-10-15T00:44:37.357Z,0.23
2022-10-15T00:46:17.100Z,0.26
2022-10-15T00:47:56.871Z,0.24
2022-10-15T00:49:36.639Z,0.26
2022-10-15T00:51:16.403Z,0.24
2022-10-15T00:52:56.188Z,0.27
2022-10-15T00:54:35.942Z,0.27
2022-10-15T00:56:15.722Z,0.28
2022-10-15T00:57:55.498Z,0.28
2022-10-15T00:59:35.251Z,0.28
2022-10-15T01:01:15.013Z,0.27
2022-10-15T01:02:54.789Z,0.24
2022-10-15T01:04:34.561Z,0.28
2022-10-15T01:06:14.309Z,0.27
2022-10-15T01:07:54.091Z,0.28
2022-10-15T01:11:13.643Z,0.27
2022-10-15T01:12:53.387Z,0.25
2022-10-15T01:14:33.150Z,0.26
2022-10-15T01:16:12.966Z,0.23
2022-10-15T01:17:52.679Z,0.26
2022-10-15T01:19:32.469Z,0.23
2022-10-15T01:21:12.231Z,0.23
2022-10-15T01:22:51.985Z,0.23
2022-10-15T01:24:31.770Z,0.22
2022-10-15T01:26:11.522Z,0.23
2022-10-15T01:27:51.301Z,0.24
2022-10-15T01:29:31.053Z,0.24
2022-10-15T01:31:10.834Z,0.27
2022-10-15T01:32:50.593Z,0.24
2022-10-15T01:34:30.363Z,0.24
2022-10-15T01:36:10.132Z,0.26
2022-10-15T01:37:49.892Z,0.28
2022-10-15T01:39:29.669Z,0.24
2022-10-15T01:41:09.422Z,0.27
2022-10-15T01:42:49.202Z,0.24
2022-10-15T01:44:28.963Z,0.26
2022-10-15T01:46:08.729Z,0.24
2022-10-15T01:47:48.490Z,0.27
2022-10-15T01:49:28.263Z,0.23
2022-10-15T01:51:08.049Z,0.28
2022-10-15T01:52:47.792Z,0.23
2022-10-15T01:56:07.356Z,0.26
2022-10-15T01:59:26.885Z,0.26
2022-10-15T02:01:06.638Z,0.26
2022-10-15T02:02:46.407Z,0.27
2022-10-15T02:04:26.175Z,0.25
2022-10-15T02:06:05.938Z,0.23
2022-10-15T02:07:45.703Z,0.24
2022-10-15T02:09:25.483Z,0.25
2022-10-15T02:11:05.251Z,0.23
2022-10-15T02:12:45.006Z,0.23
2022-10-15T02:14:24.776Z,0.25
2022-10-15T02:16:04.554Z,0.24
2022-10-15T02:17:44.316Z,0.24
2022-10-15T02:19:24.087Z,0.22
2022-10-15T02:21:03.849Z,0.24
2022-10-15T02:22:43.627Z,0.23
2022-10-15T02:24:23.386Z,0.26
2022-10-15T02:26:03.162Z,0.24
2022-10-15T02:27:42.936Z,0.23
2022-10-15T02:29:22.686Z,0.26
2022-10-15T02:31:02.464Z,0.23
2022-10-15T02:32:42.211Z,0.23
2022-10-15T02:34:21.986Z,0.26
2022-10-15T02:36:01.755Z,0.26
2022-10-15T02:37:41.532Z,0.28
2022-10-15T02:39:21.285Z,0.26
2022-10-15T02:41:01.142Z,0.25
2022-10-15T02:42:40.834Z,0.26
2022-10-15T02:44:20.596Z,0.27
2022-10-15T02:46:00.364Z,0.25
2022-10-15T02:47:40.122Z,0.26
2022-10-15T02:49:19.896Z,0.24
2022-10-15T02:50:59.667Z,0.23
2022-10-15T02:52:39.426Z,0.28
2022-10-15T02:54:19.191Z,0.26
2022-10-15T02:55:58.986Z,0.24
2022-10-15T02:57:38.723Z,0.28
2022-10-15T02:59:18.490Z,0.26
2022-10-15T03:00:58.269Z,0.26
2022-10-15T03:02:38.041Z,0.27
2022-10-15T03:04:17.826Z,0.25
2022-10-15T03:05:57.569Z,0.28
2022-10-15T03:07:37.347Z,0.24
2022-10-15T03:09:17.116Z,0.26
2022-10-15T03:10:56.908Z,0.24
2022-10-15T03:12:36.646Z,0.26
2022-10-15T03:14:16.420Z,0.26
2022-10-15T03:15:56.180Z,0.27
2022-10-15T03:17:35.942Z,0.24
2022-10-15T03:19:15.724Z,0.27
2022-10-15T03:20:55.473Z,0.25
2022-10-15T03:22:35.235Z,0.24
2022-10-15T03:24:15.012Z,0.26
2022-10-15T03:25:54.775Z,0.23
2022-10-15T03:27:34.542Z,0.27
2022-10-15T03:29:14.305Z,0.28
2022-10-15T03:30:54.081Z,0.26
2022-10-15T03:32:33.864Z,0.24
2022-10-15T03:34:13.669Z,0.28
2022-10-15T03:35:53.388Z,0.27
2022-10-15T03:37:33.147Z,0.27
2022-10-15T03:39:12.921Z,0.24
2022-10-15T03:40:52.691Z,0.24
2022-10-15T03:42:32.475Z,0.25
2022-10-15T03:44:12.227Z,0.24
2022-10-15T03:45:51.976Z,0.21
2022-10-15T03:47:31.761Z,0.22
2022-10-15T03:49:11.519Z,0.23
2022-10-15T03:50:51.296Z,0.23
2022-10-15T03:52:31.051Z,0.25
2022-10-15T03:54:10.813Z,0.26
2022-10-15T03:55:50.585Z,0.28
2022-10-15T03:57:30.340Z,0.25
2022-10-15T03:59:10.114Z,0.22
2022-10-15T04:00:49.877Z,0.25
2022-10-15T04:02:29.645Z,0.23
2022-10-15T04:04:09.404Z,0.27
2022-10-15T04:05:49.171Z,0.28
2022-10-15T04:07:28.922Z,0.24
2022-10-15T04:09:08.697Z,0.28
2022-10-15T04:10:48.495Z,0.25
2022-10-15T04:12:28.229Z,0.29
2022-10-15T04:14:07.988Z,0.28
2022-10-15T04:15:47.781Z,0.3
2022-10-15T04:17:27.520Z,0.26
2022-10-15T04:19:07.282Z,0.26
2022-10-15T04:20:47.056Z,0.26
2022-10-15T04:22:26.814Z,0.27
2022-10-15T04:24:06.583Z,0.25
2022-10-15T04:25:46.336Z,0.28
2022-10-15T04:27:26.131Z,0.3
2022-10-15T04:29:05.861Z,0.24
2022-10-15T04:30:45.641Z,0.33
2022-10-15T04:32:25.397Z,0.29
2022-10-15T04:34:05.163Z,0.36
2022-10-15T04:35:44.930Z,0.35
2022-10-15T04:37:24.691Z,0.39
2022-10-15T04:39:04.462Z,0.46
2022-10-15T04:40:44.223Z,0.48
2022-10-15T04:42:23.973Z,0.6
2022-10-15T04:44:03.760Z,0.66
2022-10-15T04:45:43.514Z,0.78
2022-10-15T04:47:23.272Z,1.02
2022-10-15T04:49:03.058Z,1.25
2022-10-15T04:50:42.830Z,1.57
2022-10-15T04:52:22.569Z,2.03
2022-10-15T04:54:02.337Z,2.55
2022-10-15T04:55:42.108Z,3.44
2022-10-15T04:57:21.861Z,4.77
2022-10-15T04:59:01.630Z,6.85
2022-10-15T05:00:41.394Z,9.1
2022-10-15T05:02:21.165Z,11.23
2022-10-15T05:04:00.921Z,14.63
2022-10-15T05:05:40.683Z,18.52
2022-10-15T05:07:20.455Z,22.92
2022-10-15T05:09:00.213Z,25.63
2022-10-15T05:10:39.972Z,30.22
2022-10-15T05:12:19.752Z,26.79
2022-10-15T05:13:59.504Z,26.81
2022-10-15T05:15:39.271Z,26.83
2022-10-15T05:17:19.041Z,26.84
2022-10-15T05:18:58.798Z,26.85
2022-10-15T05:20:38.573Z,26.85
2022-10-15T05:22:18.334Z,26.86
2022-10-15T05:23:58.089Z,26.86
2022-10-15T05:25:37.862Z,26.87
2022-10-15T05:27:17.644Z,26.87
2022-10-15T05:28:57.404Z,26.88
2022-10-15T05:30:37.145Z,26.9
2022-10-15T05:32:16.911Z,26.83
2022-10-15T05:33:56.690Z,26.91
2022-10-15T05:35:36.446Z,26.92
2022-10-15T05:37:16.216Z,26.92
2022-10-15T05:38:55.975Z,26.92
2022-10-15T05:40:35.733Z,26.93
2022-10-15T05:42:15.502Z,26.94
2022-10-15T05:43:55.275Z,26.94
2022-10-15T05:45:35.029Z,26.96
2022-10-15T05:47:14.814Z,26.96
2022-10-15T05:48:54.563Z,26.97
2022-10-15T05:50:34.322Z,26.99
2022-10-15T05:52:14.170Z,27
2022-10-15T05:53:53.861Z,27.02
2022-10-15T05:55:33.636Z,27.04
2022-10-15T05:57:13.398Z,27.08
2022-10-15T05:58:53.157Z,27.12
2022-10-15T06:00:32.919Z,27.18
2022-10-15T06:02:12.718Z,27.21
2022-10-15T06:03:52.499Z,27.22
2022-10-15T06:05:32.258Z,27.23
2022-10-15T06:07:12.019Z,27.26
2022-10-15T06:08:51.815Z,27.26
2022-10-15T06:10:31.548Z,79.1
2022-10-15T06:12:11.331Z,37.54
2022-10-15T06:13:51.081Z,27.29
2022-10-15T06:15:30.859Z,27.29
2022-10-15T06:17:10.645Z,27.31
2022-10-15T06:18:50.459Z,27.33
2022-10-15T06:20:30.175Z,27.38
2022-10-15T06:22:09.937Z,27.34
2022-10-15T06:23:49.711Z,27.53
2022-10-15T06:25:29.487Z,27.6
2022-10-15T06:27:09.240Z,27.65
2022-10-15T06:28:49.029Z,27.74
2022-10-15T06:30:28.829Z,27.9
2022-10-15T06:32:08.551Z,28
2022-10-15T06:33:48.332Z,28.05
2022-10-15T06:35:28.098Z,28.1
2022-10-15T06:37:07.882Z,28.17
2022-10-15T06:38:47.638Z,28.21
2022-10-15T06:40:27.407Z,28.24
2022-10-15T06:42:07.222Z,28.24
2022-10-15T06:43:46.945Z,28.26
2022-10-15T06:45:26.708Z,28.29
2022-10-15T06:47:06.484Z,28.3
2022-10-15T06:48:46.284Z,28.33
2022-10-15T06:50:26.029Z,28.37
2022-10-15T06:52:05.784Z,28.44
2022-10-15T06:53:45.569Z,28.49
2022-10-15T06:55:25.381Z,28.55
2022-10-15T06:57:05.118Z,28.63
2022-10-15T06:58:44.869Z,28.73
2022-10-15T07:00:24.750Z,28.81
2022-10-15T07:02:04.450Z,28.23
2022-10-15T07:03:44.204Z,28.24
2022-10-15T07:05:23.960Z,28.23
2022-10-15T07:07:03.715Z,28.28
2022-10-15T07:08:43.490Z,28.4
2022-10-15T07:10:23.297Z,28.87
2022-10-15T07:12:03.044Z,67.36
2022-10-15T07:13:42.801Z,71.83
2022-10-15T07:15:22.625Z,72.37
2022-10-15T07:17:02.353Z,72.96
2022-10-15T07:18:42.116Z,74.94
2022-10-15T07:20:21.897Z,74.82
2022-10-15T07:22:01.678Z,74.32
2022-10-15T07:23:41.434Z,66.21
2022-10-15T07:25:21.197Z,51.36
2022-10-15T07:27:01.003Z,49.19
2022-10-15T07:28:40.735Z,33.89
2022-10-15T07:30:20.502Z,74.16
2022-10-15T07:32:00.267Z,73.01
2022-10-15T07:33:40.046Z,74.04
2022-10-15T07:35:19.803Z,72.94
2022-10-15T07:36:59.599Z,74.19
2022-10-15T07:38:39.400Z,75.19
2022-10-15T07:40:19.134Z,77.81
2022-10-15T07:41:58.934Z,77.94
2022-10-15T07:43:38.665Z,77.24
2022-10-15T07:45:18.470Z,76.24
2022-10-15T07:46:58.222Z,74.92
2022-10-15T07:48:37.975Z,63.95
2022-10-15T07:50:17.752Z,42.05
2022-10-15T07:51:57.522Z,30.13
2022-10-15T07:53:37.297Z,68.31
2022-10-15T07:55:17.049Z,71.23
2022-10-15T07:56:56.836Z,72.94
2022-10-15T07:58:36.607Z,74.17
2022-10-15T08:00:16.366Z,71.56
2022-10-15T08:01:56.151Z,68.64
2022-10-15T08:03:35.913Z,69.48
2022-10-15T08:05:15.674Z,70.98
2022-10-15T08:06:55.469Z,72.71
2022-10-15T08:08:35.217Z,77.68
2022-10-15T08:10:15.003Z,73.25
2022-10-15T08:11:54.779Z,78.61
2022-10-15T08:13:34.548Z,76.32
2022-10-15T08:15:14.308Z,60.89
2022-10-15T08:16:54.076Z,57.85
2022-10-15T08:18:33.857Z,81.47
2022-10-15T08:20:13.614Z,79.17
2022-10-15T08:21:53.384Z,77.25
2022-10-15T08:23:33.162Z,76.92
2022-10-15T08:25:12.933Z,78.94
2022-10-15T08:26:52.704Z,78.58
2022-10-15T08:28:32.469Z,78.23
2022-10-15T08:30:12.233Z,80.83
2022-10-15T08:31:52.017Z,83.14
2022-10-15T08:33:31.780Z,85.11
2022-10-15T08:35:11.553Z,84.55
2022-10-15T08:36:51.326Z,86.31
2022-10-15T08:38:31.092Z,86.22
2022-10-15T08:40:10.938Z,85.87
2022-10-15T08:41:50.628Z,84.93
2022-10-15T08:43:30.400Z,81.69
2022-10-15T08:45:10.185Z,80.21
2022-10-15T08:46:49.939Z,78.07
2022-10-15T08:48:29.717Z,85.92
2022-10-15T08:50:09.494Z,78.57
2022-10-15T08:51:49.256Z,86.33
2022-10-15T08:53:29.027Z,78.06
2022-10-15T08:55:08.831Z,79.51
2022-10-15T08:56:48.562Z,80.26
2022-10-15T08:58:28.333Z,80.01
2022-10-15T09:00:08.112Z,81.89
2022-10-15T09:01:47.874Z,82.02
2022-10-15T09:03:27.646Z,81.82
2022-10-15T09:05:07.431Z,83.33
2022-10-15T09:06:47.194Z,84.22
2022-10-15T09:08:26.968Z,82.75
2022-10-15T09:10:06.730Z,83.71
2022-10-15T09:11:46.500Z,81.99
2022-10-15T09:13:26.269Z,81.86
2022-10-15T09:15:06.037Z,80.08
2022-10-15T09:16:45.813Z,81.99
2022-10-15T09:18:25.589Z,82.53
2022-10-15T09:20:05.400Z,82.2
2022-10-15T09:21:45.117Z,82.34
2022-10-15T09:23:24.908Z,82.63
2022-10-15T09:25:04.664Z,83.21
2022-10-15T09:26:44.445Z,83.54
2022-10-15T09:28:24.208Z,83.49
2022-10-15T09:30:04.039Z,83.52
2022-10-15T09:31:43.768Z,83.67
2022-10-15T09:33:23.538Z,83.57
2022-10-15T09:35:03.292Z,83.72
2022-10-15T09:36:43.098Z,83.4
2022-10-15T09:38:22.822Z,83.23
2022-10-15T09:40:02.600Z,84
2022-10-15T09:41:42.383Z,86.67
2022-10-15T09:43:22.142Z,86.3
2022-10-15T09:45:01.921Z,83.6
2022-10-15T09:46:41.703Z,82.88
2022-10-15T09:48:21.451Z,84.24
2022-10-15T09:50:01.248Z,81.68
2022-10-15T09:51:40.995Z,83.96
2022-10-15T09:53:20.755Z,84.94
2022-10-15T09:55:00.603Z,84.89
2022-10-15T09:56:40.298Z,84.77
2022-10-15T09:58:20.082Z,84.14
2022-10-15T09:59:59.857Z,84.74
2022-10-15T10:01:39.620Z,83.26
2022-10-15T10:03:19.424Z,80.54
2022-10-15T10:04:59.194Z,80.62
2022-10-15T10:06:38.931Z,80.26
2022-10-15T10:08:18.695Z,81.14
2022-10-15T10:09:58.466Z,81.43
2022-10-15T10:11:38.230Z,81.58
2022-10-15T10:13:18.009Z,80.5
2022-10-15T10:14:57.786Z,79.37
2022-10-15T10:16:37.551Z,80.46
2022-10-15T10:18:17.326Z,81.16
2022-10-15T10:19:57.118Z,81.78
2022-10-15T10:21:36.859Z,82.23
2022-10-15T10:23:16.661Z,83.24
2022-10-15T10:24:56.434Z,83.67
2022-10-15T10:26:36.170Z,83.27
2022-10-15T10:28:15.957Z,83.17
2022-10-15T10:29:55.726Z,83.22
2022-10-15T10:31:35.495Z,83.27
2022-10-15T10:33:15.284Z,83.84
2022-10-15T10:34:55.019Z,84.22
2022-10-15T10:36:34.788Z,83.23
2022-10-15T10:38:14.557Z,83.17
2022-10-15T10:39:54.338Z,83.8
2022-10-15T10:41:34.109Z,83.02
2022-10-15T10:43:13.894Z,82.89
2022-10-15T10:46:33.425Z,82.5
2022-10-15T10:48:13.188Z,81.65
2022-10-15T10:49:53.027Z,81.64
2022-10-15T10:51:32.739Z,81.73
2022-10-15T10:53:12.500Z,81.96
2022-10-15T10:54:52.290Z,82.06
2022-10-15T10:56:32.052Z,82.54
2022-10-15T10:58:11.806Z,82.99
2022-10-15T10:59:51.582Z,83.06
2022-10-15T11:01:31.351Z,82.9
2022-10-15T11:03:11.126Z,82.74
2022-10-15T11:04:50.901Z,83.25
2022-10-15T11:06:30.658Z,83.12
2022-10-15T11:08:10.423Z,84.37
2022-10-15T11:09:50.208Z,84.13
2022-10-15T11:11:29.976Z,84.24
2022-10-15T11:13:09.736Z,84.46
2022-10-15T11:14:49.507Z,84.39
2022-10-15T11:16:29.280Z,84.5
2022-10-15T11:18:09.077Z,84.73
2022-10-15T11:19:48.826Z,84.81
2022-10-15T11:21:28.577Z,85.51
2022-10-15T11:23:08.369Z,84.15
2022-10-15T11:24:48.115Z,84.18
2022-10-15T11:26:27.904Z,85.73
2022-10-15T11:28:07.661Z,85.17
2022-10-15T11:31:27.195Z,85.55
2022-10-15T11:33:07.074Z,84.16
2022-10-15T11:34:46.736Z,83.72
2022-10-15T11:36:26.515Z,84.58
2022-10-15T11:38:06.298Z,83.03
2022-10-15T11:39:46.044Z,84.84
2022-10-15T11:41:25.826Z,83
2022-10-15T11:43:05.615Z,82.92
2022-10-15T11:44:45.460Z,83.59
2022-10-15T11:46:25.148Z,84.93
2022-10-15T11:48:04.902Z,85.92
2022-10-15T11:49:44.679Z,83.46
2022-10-15T11:51:24.452Z,83.33
2022-10-15T11:53:04.248Z,84.32
2022-10-15T11:54:43.991Z,83.44
2022-10-15T11:56:23.752Z,85.34
2022-10-15T11:58:03.517Z,84.69
2022-10-15T11:59:43.290Z,84.62
2022-10-15T12:01:23.083Z,80.86
2022-10-15T12:03:02.838Z,80.55
2022-10-15T12:04:42.618Z,80.87
2022-10-15T12:06:22.390Z,81.65
2022-10-15T12:08:02.156Z,82.23
2022-10-15T12:09:41.930Z,81.8
2022-10-15T12:11:21.690Z,82.18
2022-10-15T12:13:01.471Z,83.3
2022-10-15T12:14:41.236Z,83.32
2022-10-15T12:16:21.002Z,82.14
2022-10-15T12:18:00.776Z,82
2022-10-15T12:19:40.538Z,84.4
2022-10-15T12:21:20.321Z,83.67
2022-10-15T12:23:00.094Z,82.73
2022-10-15T12:24:39.845Z,82.62
2022-10-15T12:26:19.626Z,86.15
2022-10-15T12:27:59.387Z,86.24
2022-10-15T12:29:39.158Z,86.4
2022-10-15T12:31:18.938Z,83.45
2022-10-15T12:32:58.728Z,83.12
2022-10-15T12:34:38.541Z,82.71
2022-10-15T12:36:18.245Z,81.89
2022-10-15T12:37:58.048Z,81.75
2022-10-15T12:39:37.780Z,83.06
2022-10-15T12:41:17.562Z,83.53
2022-10-15T12:42:57.327Z,84.55
2022-10-15T12:44:37.107Z,84.49
2022-10-15T12:46:16.865Z,83.32
2022-10-15T12:47:56.667Z,82.46
2022-10-15T12:49:36.416Z,82.22
2022-10-15T12:51:16.195Z,82.44
2022-10-15T12:52:55.946Z,83.73
2022-10-15T12:54:35.729Z,83.29
2022-10-15T12:56:15.493Z,82.85
2022-10-15T12:57:55.264Z,83.05
2022-10-15T12:59:35.109Z,83.21
2022-10-15T13:01:14.808Z,83.2
2022-10-15T13:02:54.567Z,83.31
2022-10-15T13:04:34.360Z,82.98
2022-10-15T13:07:53.888Z,82.4
2022-10-15T13:09:33.659Z,82.32
2022-10-15T13:11:13.417Z,82.07
2022-10-15T13:12:53.202Z,82.07
2022-10-15T13:14:32.979Z,82.4
2022-10-15T13:17:52.525Z,82.39
2022-10-15T13:19:32.276Z,82.4
2022-10-15T13:21:12.095Z,82.31
2022-10-15T13:22:51.833Z,82.24
2022-10-15T13:24:31.597Z,82.17
2022-10-15T13:26:11.368Z,82.11
2022-10-15T13:27:51.132Z,82.1
2022-10-15T13:31:10.671Z,82.11
2022-10-15T13:32:50.443Z,82.28
2022-10-15T13:34:30.225Z,82.34
2022-10-15T13:36:09.988Z,82.44
2022-10-15T13:37:49.792Z,82.47
2022-10-15T13:39:29.530Z,82.6
2022-10-15T13:41:09.295Z,82.63
2022-10-15T13:42:49.062Z,82.68
2022-10-15T13:44:28.842Z,82.71
2022-10-15T13:46:08.613Z,82.67
2022-10-15T13:47:48.368Z,82.94
2022-10-15T13:49:28.159Z,83.04
2022-10-15T13:51:07.911Z,83.1
2022-10-15T13:52:47.694Z,83.38
2022-10-15T13:54:27.450Z,83.68
2022-10-15T13:56:07.245Z,84.16
2022-10-15T13:57:47.017Z,84.23
2022-10-15T13:59:26.795Z,83.9
2022-10-15T14:01:06.547Z,84.24
2022-10-15T14:02:46.314Z,84.57
2022-10-15T14:04:26.084Z,86.92
2022-10-15T14:06:05.919Z,86.69
2022-10-15T14:07:45.634Z,82.48
2022-10-15T14:09:25.394Z,82.56
2022-10-15T14:11:05.167Z,82.12
2022-10-15T14:12:44.940Z,81.73
2022-10-15T14:14:24.702Z,82.51
2022-10-15T14:16:04.529Z,82.52
2022-10-15T14:17:44.247Z,81.69
2022-10-15T14:19:24.011Z,81.07
2022-10-15T14:21:03.814Z,81.3
2022-10-15T14:22:43.555Z,81.62
2022-10-15T14:24:23.319Z,81.74
2022-10-15T14:26:03.112Z,81.69
2022-10-15T14:27:42.862Z,81.91
2022-10-15T14:29:22.641Z,82
2022-10-15T14:31:02.417Z,82.1
2022-10-15T14:32:42.170Z,82.62
2022-10-15T14:34:21.943Z,83.03
2022-10-15T14:36:01.713Z,83.84
2022-10-15T14:37:41.527Z,83.43
2022-10-15T14:39:21.267Z,84.06
2022-10-15T14:41:01.034Z,85.66
2022-10-15T14:42:40.845Z,81.28
2022-10-15T14:44:20.570Z,80.51
2022-10-15T14:46:00.382Z,80.83
2022-10-15T14:47:40.125Z,80.8
2022-10-15T14:49:19.886Z,80.07
2022-10-15T14:50:59.671Z,80.58
2022-10-15T14:52:39.434Z,80.74
2022-10-15T14:54:19.194Z,80.97
2022-10-15T14:55:58.978Z,81.16
2022-10-15T14:57:38.741Z,82.14
2022-10-15T14:59:18.509Z,81.55
2022-10-15T15:00:58.277Z,85.03
2022-10-15T15:02:38.048Z,84.4
2022-10-15T15:04:17.823Z,83.82
2022-10-15T15:07:37.361Z,81.97
2022-10-15T15:09:17.140Z,82.14
2022-10-15T15:10:56.965Z,77.49
2022-10-15T15:12:36.670Z,77.18
2022-10-15T15:14:16.445Z,77.12
2022-10-15T15:15:56.250Z,77.5
2022-10-15T15:17:35.989Z,78.68
2022-10-15T15:19:15.754Z,76.28
2022-10-15T15:20:55.524Z,75.33
2022-10-15T15:22:35.308Z,74.73
2022-10-15T15:24:15.083Z,76.82
2022-10-15T15:25:54.853Z,78.28
2022-10-15T15:27:34.611Z,76.4
2022-10-15T15:29:14.372Z,74.1
2022-10-15T15:30:54.157Z,74.49
2022-10-15T15:32:33.913Z,73.51
2022-10-15T15:34:13.719Z,72.32
2022-10-15T15:35:53.475Z,70.69
2022-10-15T15:37:33.220Z,65.72
2022-10-15T15:40:52.776Z,43.99
2022-10-15T15:42:32.560Z,38.41
2022-10-15T15:44:12.306Z,37.34
2022-10-15T15:45:52.099Z,36.27
2022-10-15T15:47:31.858Z,36.29
2022-10-15T15:49:11.606Z,36.97
2022-10-15T15:50:51.391Z,34.05
2022-10-15T15:52:31.195Z,30.73
2022-10-15T15:54:10.936Z,28.15
2022-10-15T15:55:50.721Z,28.18
2022-10-15T15:57:30.460Z,28.15
2022-10-15T15:59:10.255Z,28.13
2022-10-15T16:00:50.006Z,28.1
2022-10-15T16:02:29.769Z,28.07
2022-10-15T16:04:09.531Z,28.03
2022-10-15T16:05:49.301Z,28
2022-10-15T16:07:29.157Z,27.96
2022-10-15T16:09:08.867Z,27.92
2022-10-15T16:10:48.605Z,27.9
2022-10-15T16:12:28.409Z,27.86
2022-10-15T16:14:08.133Z,32.23
2022-10-15T16:15:47.921Z,31.92
2022-10-15T16:17:27.676Z,27.78
2022-10-15T16:19:07.488Z,27.68
2022-10-15T16:20:47.213Z,27.73
2022-10-15T16:22:26.970Z,27.7
2022-10-15T16:24:06.748Z,27.68
2022-10-15T16:25:46.530Z,27.67
2022-10-15T16:27:26.275Z,27.63
2022-10-15T16:29:06.056Z,27.61
2022-10-15T16:30:45.823Z,27.58
2022-10-15T16:32:25.575Z,27.51
2022-10-15T16:34:05.341Z,27.42
2022-10-15T16:35:45.112Z,23.47
2022-10-15T16:37:24.916Z,18.26
2022-10-15T16:39:04.653Z,13.83
2022-10-15T16:40:44.411Z,10.42
2022-10-15T16:42:24.203Z,7.84
2022-10-15T16:44:03.943Z,5.91
2022-10-15T16:45:43.740Z,4.48
2022-10-15T16:47:23.521Z,3.39
2022-10-15T16:49:03.262Z,2.57
2022-10-15T16:50:43.050Z,1.99
2022-10-15T16:52:22.783Z,1.51
2022-10-15T16:54:02.556Z,1.2
2022-10-15T16:55:42.330Z,0.92
2022-10-15T16:57:22.107Z,0.74
2022-10-15T16:59:01.850Z,0.58
2022-10-15T17:00:41.725Z,0.48
2022-10-15T17:04:01.160Z,0.33
2022-10-15T17:05:40.923Z,0.29
2022-10-15T17:07:20.733Z,0.27
2022-10-15T17:09:00.465Z,0.24
2022-10-15T17:10:40.230Z,0.23
2022-10-15T17:12:20.041Z,0.2
2022-10-15T17:13:59.769Z,0.19
2022-10-15T17:15:39.537Z,0.19
2022-10-15T17:17:19.336Z,0.18
2022-10-15T17:18:59.178Z,0.19
2022-10-15T17:20:38.850Z,0.18
2022-10-15T17:22:18.597Z,0.19
2022-10-15T17:23:58.380Z,0.16
2022-10-15T17:25:38.129Z,0.18
2022-10-15T17:27:17.905Z,0.18
2022-10-15T17:28:57.670Z,0.17
2022-10-15T17:30:37.443Z,0.19
2022-10-15T17:32:17.212Z,0.17
2022-10-15T17:33:56.982Z,0.18
2022-10-15T17:35:36.733Z,0.16
2022-10-15T17:37:16.616Z,0.19
2022-10-15T17:38:56.280Z,0.18
2022-10-15T17:40:36.071Z,0.16
2022-10-15T17:42:15.890Z,0.17
2022-10-15T17:43:55.611Z,0.15
2022-10-15T17:45:35.365Z,0.16
2022-10-15T17:47:15.180Z,0.16
2022-10-15T17:48:54.887Z,0.19
2022-10-15T17:50:34.645Z,0.17
2022-10-15T17:52:14.413Z,0.18
2022-10-15T17:53:54.194Z,0.18
2022-10-15T17:55:33.982Z,0.18
2022-10-15T17:57:13.782Z,0.18
2022-10-15T17:58:53.528Z,0.17
2022-10-15T18:00:33.303Z,0.19
2022-10-15T18:02:13.036Z,0.18
2022-10-15T18:03:52.787Z,0.16
2022-10-15T18:05:32.559Z,0.19
2022-10-15T18:07:12.332Z,0.18
2022-10-15T18:10:31.904Z,0.16
2022-10-15T18:12:11.693Z,0.17
2022-10-15T18:13:51.392Z,0.16
2022-10-15T18:15:31.168Z,0.17
2022-10-15T18:17:10.932Z,0.17
2022-10-15T18:18:50.705Z,0.19
2022-10-15T18:20:30.462Z,0.18
2022-10-15T18:22:10.236Z,0.17
2022-10-15T18:23:49.992Z,0.19
2022-10-15T18:25:29.774Z,0.19
2022-10-15T18:27:09.528Z,0.17
2022-10-15T18:28:49.311Z,0.2
2022-10-15T18:30:29.070Z,0.21
2022-10-15T18:32:08.830Z,0.18
2022-10-15T18:33:48.652Z,0.2
2022-10-15T18:35:28.380Z,0.17
2022-10-15T18:37:08.143Z,0.2
2022-10-15T18:38:47.901Z,0.17
2022-10-15T18:40:27.680Z,0.19
2022-10-15T18:42:07.446Z,0.17
2022-10-15T18:43:47.217Z,0.18
2022-10-15T18:45:26.979Z,0.19
2022-10-15T18:47:06.757Z,0.16
2022-10-15T18:48:46.508Z,0.18
2022-10-15T18:50:26.326Z,0.2
2022-10-15T18:53:45.822Z,0.19
2022-10-15T18:55:25.576Z,0.24
2022-10-15T18:57:05.354Z,0.23
2022-10-15T18:58:45.148Z,0.23
2022-10-15T19:00:24.881Z,0.19
2022-10-15T19:02:04.645Z,0.2
2022-10-15T19:03:44.410Z,0.19
2022-10-15T19:05:24.191Z,0.19
2022-10-15T19:07:03.955Z,0.16
2022-10-15T19:08:43.721Z,0.17
2022-10-15T19:10:23.487Z,0.19
2022-10-15T19:12:03.263Z,0.18
2022-10-15T19:13:43.041Z,0.17
2022-10-15T19:15:22.795Z,0.17
2022-10-15T19:17:02.567Z,0.17
2022-10-15T19:18:42.318Z,0.17
2022-10-15T19:20:22.100Z,0.16
2022-10-15T19:22:01.863Z,0.18
2022-10-15T19:23:41.629Z,0.18
2022-10-15T19:25:21.470Z,0.19
2022-10-15T19:27:01.159Z,0.16
2022-10-15T19:28:40.960Z,0.17
2022-10-15T19:30:20.706Z,0.17
2022-10-15T19:32:00.515Z,0.18
2022-10-15T19:33:40.267Z,0.16
2022-10-15T19:35:20.023Z,0.19
2022-10-15T19:36:59.807Z,0.18
2022-10-15T19:38:39.549Z,0.18
2022-10-15T19:40:19.301Z,0.18
2022-10-15T19:41:59.084Z,0.17
2022-10-15T19:43:38.846Z,0.21
2022-10-15T19:45:18.626Z,0.18
2022-10-15T19:46:58.396Z,0.18
2022-10-15T19:48:38.157Z,0.22
2022-10-15T19:50:17.905Z,0.21
2022-10-15T19:51:57.694Z,0.21
2022-10-15T19:53:37.436Z,0.19
2022-10-15T19:55:17.201Z,0.21
2022-10-15T19:56:57.011Z,0.17
2022-10-15T19:58:36.743Z,0.21
2022-10-15T20:00:16.510Z,0.17
2022-10-15T20:01:56.316Z,0.19
2022-10-15T20:03:36.039Z,0.17
2022-10-15T20:06:55.602Z,0.17
2022-10-15T20:08:35.356Z,0.19
2022-10-15T20:10:15.120Z,0.19
2022-10-15T20:11:54.903Z,0.21
2022-10-15T20:13:34.663Z,0.21
2022-10-15T20:16:54.211Z,0.22
2022-10-15T20:18:33.958Z,0.21
2022-10-15T20:20:13.724Z,0.21
2022-10-15T20:21:53.503Z,0.2
2022-10-15T20:23:33.260Z,0.21
2022-10-15T20:25:13.018Z,0.19
2022-10-15T20:26:52.776Z,0.17
2022-10-15T20:28:32.553Z,0.22
2022-10-15T20:30:12.355Z,0.21
2022-10-15T20:31:52.093Z,0.19
2022-10-15T20:33:31.874Z,0.17
2022-10-15T20:36:51.401Z,0.17
2022-10-15T20:38:31.225Z,0.17
2022-10-15T20:40:10.928Z,0.18
2022-10-15T20:41:50.697Z,0.17
2022-10-15T20:43:30.487Z,0.18
2022-10-15T20:45:10.257Z,0.19
2022-10-15T20:46:49.992Z,0.19
2022-10-15T20:48:29.785Z,0.2
2022-10-15T20:50:09.533Z,0.16
2022-10-15T20:51:49.293Z,0.18
2022-10-15T20:53:29.067Z,0.19
2022-10-15T20:55:08.831Z,0.16
2022-10-15T20:56:48.610Z,0.19
2022-10-15T20:58:28.361Z,0.18
2022-10-15T21:00:08.137Z,0.19
2022-10-15T21:01:47.934Z,0.18
2022-10-15T21:03:27.676Z,0.18
2022-10-15T21:05:07.451Z,0.19
2022-10-15T21:06:47.210Z,0.19
2022-10-15T21:08:26.972Z,0.19
2022-10-15T21:10:06.745Z,0.2
2022-10-15T21:11:46.502Z,0.21
2022-10-15T21:13:26.284Z,0.17
2022-10-15T21:15:06.107Z,0.19
2022-10-15T21:16:45.811Z,0.18
2022-10-15T21:18:25.599Z,0.2
2022-10-15T21:20:05.339Z,0.19
2022-10-15T21:21:45.103Z,0.19
2022-10-15T21:23:24.879Z,0.19
2022-10-15T21:25:04.667Z,0.18
2022-10-15T21:26:44.421Z,0.19
2022-10-15T21:28:24.184Z,0.16
2022-10-15T21:30:03.955Z,0.18
2022-10-15T21:31:43.716Z,0.17
2022-10-15T21:33:23.483Z,0.16
2022-10-15T21:35:03.253Z,0.2
2022-10-15T21:36:43.038Z,0.17
2022-10-15T21:38:22.777Z,0.17
2022-10-15T21:40:02.544Z,0.18
2022-10-15T21:41:42.312Z,0.19
2022-10-15T21:43:22.093Z,0.18
2022-10-15T21:45:01.878Z,0.19
2022-10-15T21:46:41.632Z,0.17
2022-10-15T21:48:21.392Z,0.17
2022-10-15T21:50:01.154Z,0.16
2022-10-15T21:51:40.919Z,0.18
2022-10-15T21:53:20.712Z,0.17
2022-10-15T21:56:40.273Z,0.19
2022-10-15T21:58:20.005Z,0.19
2022-10-15T21:59:59.760Z,0.2
2022-10-15T22:01:39.530Z,0.18
2022-10-15T22:03:19.306Z,0.16
2022-10-15T22:04:59.065Z,0.2
2022-10-15T22:06:38.844Z,0.18
2022-10-15T22:08:18.608Z,0.18
2022-10-15T22:09:58.368Z,0.17
2022-10-15T22:11:38.204Z,0.18
2022-10-15T22:13:17.912Z,0.19
2022-10-15T22:14:57.665Z,0.17
2022-10-15T22:16:37.439Z,0.21
2022-10-15T22:18:17.208Z,0.2